Time;durP1;ratioP1;P1;durP2;ratioP2;P2;SDS_P1;SDS_P2;PMS_P1;PMS_P2;Temp;Humidity;BMP_temperature;BMP_pressure;BME280_temperature;BME280_humidity;BME280_pressure;Samples;Min_cycle;Max_cycle;Signal;HPM_P1;HPM_P2
2022/01/29 00:02:24;;;;;;;26.73;10.63;;;;;;;;;;4446418;32;20240;-55
2022/01/29 00:04:50;;;;;;;30.30;13.57;;;;;;;;;;4416909;32;20315;-55
2022/01/29 00:07:15;;;;;;;36.97;13.97;;;;;;;;;;4415528;32;20343;-56
2022/01/29 00:09:43;;;;;;;43.07;19.00;;;;;;;;;;4414690;32;20315;-55
2022/01/29 00:12:09;;;;;;;44.37;16.30;;;;;;;;;;4415744;32;20327;-55
2022/01/29 00:14:35;;;;;;;20.77;10.97;;;;;;;;;;4414698;32;20245;-55
2022/01/29 00:17:01;;;;;;;12.70;6.37;;;;;;;;;;4414587;32;20253;-54
2022/01/29 00:19:26;;;;;;;26.33;13.00;;;;;;;;;;4417651;32;20271;-55
2022/01/29 00:21:52;;;;;;;27.67;12.33;;;;;;;;;;4418730;32;20267;-55
2022/01/29 00:24:17;;;;;;;20.53;12.13;;;;;;;;;;4418739;32;20292;-55
2022/01/29 00:26:42;;;;;;;18.70;10.40;;;;;;;;;;4418787;32;20247;-55
2022/01/29 00:29:17;;;;;;;27.20;12.77;;;;;;;;;;4419767;32;20272;-55
2022/01/29 00:31:42;;;;;;;28.23;13.60;;;;;;;;;;4419778;32;20330;-55
2022/01/29 00:34:08;;;;;;;17.93;10.53;;;;;;;;;;4433805;32;20647;-55
2022/01/29 00:36:33;;;;;;;16.97;9.37;;;;;;;;;;4432222;32;20212;-55
2022/01/29 00:38:59;;;;;;;21.73;10.13;;;;;;;;;;4431431;32;20378;-56
2022/01/29 00:41:24;;;;;;;17.33;9.40;;;;;;;;;;4419697;32;20312;-55
2022/01/29 00:43:50;;;;;;;12.37;6.93;;;;;;;;;;4434223;32;20284;-57
2022/01/29 00:46:15;;;;;;;10.77;6.97;;;;;;;;;;4447166;32;20258;-54
2022/01/29 00:48:40;;;;;;;9.93;6.33;;;;;;;;;;4449042;32;20480;-55
2022/01/29 00:51:06;;;;;;;13.83;6.33;;;;;;;;;;4448960;32;20284;-56
2022/01/29 00:53:31;;;;;;;11.87;6.97;;;;;;;;;;4432364;32;20231;-55
2022/01/29 00:55:57;;;;;;;12.77;5.77;;;;;;;;;;4420287;32;20385;-55
2022/01/29 00:58:22;;;;;;;7.70;5.03;;;;;;;;;;4418071;32;20325;-56
2022/01/29 01:00:48;;;;;;;7.13;5.83;;;;;;;;;;4418301;32;20272;-56
2022/01/29 01:03:13;;;;;;;10.30;6.30;;;;;;;;;;4418179;32;20320;-58
2022/01/29 01:05:39;;;;;;;13.50;7.87;;;;;;;;;;4417819;32;20225;-54
2022/01/29 01:08:04;;;;;;;22.27;11.27;;;;;;;;;;4417813;32;20420;-55
2022/01/29 01:10:30;;;;;;;26.43;15.50;;;;;;;;;;4417816;32;20310;-55
2022/01/29 01:12:55;;;;;;;24.13;11.77;;;;;;;;;;4418419;32;20265;-55
2022/01/29 01:15:21;;;;;;;66.70;31.63;;;;;;;;;;4417670;32;20675;-56
2022/01/29 01:17:46;;;;;;;55.37;27.67;;;;;;;;;;4417959;32;20767;-56
2022/01/29 01:20:12;;;;;;;33.63;16.83;;;;;;;;;;4417927;32;20322;-55
2022/01/29 01:22:38;;;;;;;24.07;12.87;;;;;;;;;;4418276;32;20298;-54
2022/01/29 01:25:04;;;;;;;25.10;12.40;;;;;;;;;;4417626;32;20696;-55
2022/01/29 01:27:30;;;;;;;26.53;13.17;;;;;;;;;;4432119;32;20424;-54
2022/01/29 01:29:55;;;;;;;16.57;8.93;;;;;;;;;;4432518;32;20280;-56
2022/01/29 01:32:21;;;;;;;16.67;9.03;;;;;;;;;;4418763;32;20233;-54
2022/01/29 01:34:51;;;;;;;19.33;9.33;;;;;;;;;;4432791;32;20712;-56
2022/01/29 01:37:39;;;;;;;22.57;12.93;;;;;;;;;;4429305;32;20480;-57
2022/01/29 01:40:07;;;;;;;20.90;13.20;;;;;;;;;;4418720;32;20828;-55
2022/01/29 01:42:32;;;;;;;18.50;11.00;;;;;;;;;;4432853;32;20303;-54
2022/01/29 01:44:58;;;;;;;17.37;9.37;;;;;;;;;;4438320;32;20699;-55
2022/01/29 01:47:23;;;;;;;19.13;10.63;;;;;;;;;;4447992;32;20273;-55
2022/01/29 01:49:49;;;;;;;21.63;16.73;;;;;;;;;;4448096;32;20275;-56
2022/01/29 01:52:14;;;;;;;26.13;13.73;;;;;;;;;;4447882;32;20446;-54
2022/01/29 01:54:42;;;;;;;22.33;12.07;;;;;;;;;;4447899;32;20287;-55
2022/01/29 01:57:07;;;;;;;11.83;8.03;;;;;;;;;;4448308;32;20231;-56
2022/01/29 01:59:33;;;;;;;17.83;8.70;;;;;;;;;;4448190;32;20726;-56
2022/01/29 02:01:59;;;;;;;14.77;9.07;;;;;;;;;;4448024;32;20247;-55
2022/01/29 02:04:25;;;;;;;17.33;8.43;;;;;;;;;;4423180;32;20300;-56
2022/01/29 02:06:51;;;;;;;26.27;10.00;;;;;;;;;;4417294;32;20294;-53
2022/01/29 02:09:20;;;;;;;24.90;12.73;;;;;;;;;;4417059;32;20193;-56
2022/01/29 02:12:04;;;;;;;25.50;13.97;;;;;;;;;;4417282;32;20241;-55
2022/01/29 02:14:33;;;;;;;31.53;16.27;;;;;;;;;;4416858;32;20241;-55
2022/01/29 02:16:59;;;;;;;23.60;14.50;;;;;;;;;;4415597;32;20260;-55
2022/01/29 02:19:25;;;;;;;27.40;13.87;;;;;;;;;;4417045;32;20225;-56
2022/01/29 02:21:52;;;;;;;34.17;14.80;;;;;;;;;;4416658;32;20585;-55
2022/01/29 02:24:17;;;;;;;39.13;21.00;;;;;;;;;;4402787;32;20659;-57
2022/01/29 02:26:43;;;;;;;41.13;19.90;;;;;;;;;;4402963;32;20299;-54
2022/01/29 02:29:08;;;;;;;37.33;18.00;;;;;;;;;;4416849;32;20306;-54
2022/01/29 02:31:34;;;;;;;35.63;17.13;;;;;;;;;;4402673;32;20833;-55
2022/01/29 02:33:59;;;;;;;29.40;14.80;;;;;;;;;;4416886;32;20350;-55
2022/01/29 02:36:25;;;;;;;41.23;20.07;;;;;;;;;;4416293;32;20241;-56
2022/01/29 02:38:50;;;;;;;49.93;23.23;;;;;;;;;;4431919;32;20375;-56
2022/01/29 02:41:16;;;;;;;39.33;19.47;;;;;;;;;;4417761;32;20738;-55
2022/01/29 02:43:50;;;;;;;39.03;17.30;;;;;;;;;;4432016;32;20370;-56
2022/01/29 02:48:48;;;;;;;38.60;18.37;;;;;;;;;;4447234;32;20293;-55
2022/01/29 02:51:13;;;;;;;36.23;17.00;;;;;;;;;;4447079;32;20696;-54
2022/01/29 02:53:39;;;;;;;30.50;15.73;;;;;;;;;;4433540;32;20306;-56
2022/01/29 02:56:05;;;;;;;26.83;14.93;;;;;;;;;;4433285;32;20632;-55
2022/01/29 02:58:31;;;;;;;41.27;19.00;;;;;;;;;;4447071;32;20346;-55
2022/01/29 03:00:56;;;;;;;31.47;16.27;;;;;;;;;;4447048;32;20255;-55
2022/01/29 03:03:22;;;;;;;36.03;16.97;;;;;;;;;;4421862;32;20315;-55
2022/01/29 03:05:47;;;;;;;52.67;27.13;;;;;;;;;;4416545;32;20224;-56
2022/01/29 03:08:13;;;;;;;69.27;31.67;;;;;;;;;;4402276;32;20308;-55
2022/01/29 03:10:39;;;;;;;79.60;32.20;;;;;;;;;;4416447;32;20266;-55
2022/01/29 03:13:04;;;;;;;71.83;32.53;;;;;;;;;;4416527;32;20315;-56
2022/01/29 03:15:30;;;;;;;57.47;32.00;;;;;;;;;;4416576;32;20313;-56
2022/01/29 03:17:56;;;;;;;74.97;33.47;;;;;;;;;;4416436;32;20390;-56
2022/01/29 03:20:21;;;;;;;75.63;33.63;;;;;;;;;;4402191;32;20260;-56
2022/01/29 03:22:47;;;;;;;66.07;33.10;;;;;;;;;;4416252;32;20323;-55
2022/01/29 03:25:13;;;;;;;80.70;35.80;;;;;;;;;;4416100;32;20284;-57
2022/01/29 03:27:38;;;;;;;85.00;38.93;;;;;;;;;;4416297;32;20311;-55
2022/01/29 03:30:05;;;;;;;69.33;35.77;;;;;;;;;;4402492;32;20771;-55
2022/01/29 03:32:31;;;;;;;74.27;31.63;;;;;;;;;;4416168;32;20205;-55
2022/01/29 03:34:56;;;;;;;84.53;36.63;;;;;;;;;;4416112;32;20367;-56
2022/01/29 03:37:22;;;;;;;124.30;42.03;;;;;;;;;;4420904;32;20273;-54
2022/01/29 03:39:47;;;;;;;75.97;32.30;;;;;;;;;;4431633;32;20268;-57
2022/01/29 03:42:14;;;;;;;56.83;25.83;;;;;;;;;;4431323;32;20298;-55
2022/01/29 03:44:40;;;;;;;61.27;24.87;;;;;;;;;;4434894;32;20678;-54
2022/01/29 03:47:06;;;;;;;65.67;27.20;;;;;;;;;;4447158;32;20220;-56
2022/01/29 03:49:32;;;;;;;68.93;25.00;;;;;;;;;;4432394;32;20760;-56
2022/01/29 03:51:57;;;;;;;68.10;25.83;;;;;;;;;;4446727;32;20280;-54
2022/01/29 03:54:23;;;;;;;54.50;21.40;;;;;;;;;;4448732;32;20374;-57
2022/01/29 03:56:48;;;;;;;40.97;18.67;;;;;;;;;;4449809;32;20297;-55
2022/01/29 03:59:14;;;;;;;44.40;20.83;;;;;;;;;;4450038;32;20351;-56
2022/01/29 04:01:39;;;;;;;40.33;19.33;;;;;;;;;;4449991;32;20284;-55
2022/01/29 04:04:05;;;;;;;49.63;19.23;;;;;;;;;;4429945;32;20426;-55
2022/01/29 04:06:31;;;;;;;28.03;13.87;;;;;;;;;;4417478;32;20252;-54
2022/01/29 04:08:57;;;;;;;20.43;11.40;;;;;;;;;;4419003;32;20281;-55
2022/01/29 04:11:23;;;;;;;24.33;12.63;;;;;;;;;;4418901;32;20221;-55
2022/01/29 04:13:49;;;;;;;38.67;16.77;;;;;;;;;;4418734;32;20265;-55
2022/01/29 04:16:16;;;;;;;26.87;13.77;;;;;;;;;;4433184;32;20327;-55
2022/01/29 04:18:43;;;;;;;30.97;13.23;;;;;;;;;;4420278;32;20229;-55
2022/01/29 04:21:09;;;;;;;20.20;9.60;;;;;;;;;;4434096;32;20267;-54
2022/01/29 04:23:34;;;;;;;14.23;8.70;;;;;;;;;;4419936;32;20324;-55
2022/01/29 04:26:02;;;;;;;11.20;7.10;;;;;;;;;;4419676;32;20252;-55
2022/01/29 04:28:32;;;;;;;13.90;6.80;;;;;;;;;;4434212;32;20213;-56
2022/01/29 04:31:06;;;;;;;10.63;5.60;;;;;;;;;;4433987;32;20308;-55
2022/01/29 04:33:31;;;;;;;10.57;6.83;;;;;;;;;;4433898;32;20226;-54
2022/01/29 04:35:59;;;;;;;13.80;7.03;;;;;;;;;;4433660;32;20339;-55
2022/01/29 04:38:26;;;;;;;16.13;7.80;;;;;;;;;;4433574;32;20703;-56
2022/01/29 04:40:53;;;;;;;25.70;11.43;;;;;;;;;;4419799;32;20561;-55
2022/01/29 04:43:19;;;;;;;45.27;15.87;;;;;;;;;;4433998;32;20245;-55
2022/01/29 04:45:44;;;;;;;36.87;14.77;;;;;;;;;;4444128;32;20806;-54
2022/01/29 04:48:10;;;;;;;31.47;17.77;;;;;;;;;;4449510;32;20314;-54
2022/01/29 04:50:36;;;;;;;31.03;15.00;;;;;;;;;;4434677;32;20250;-55
2022/01/29 04:53:01;;;;;;;29.60;14.67;;;;;;;;;;4449041;32;20275;-55
2022/01/29 04:55:27;;;;;;;28.73;16.13;;;;;;;;;;4449125;32;20248;-57
2022/01/29 04:57:52;;;;;;;39.83;15.27;;;;;;;;;;4449163;32;20267;-55
2022/01/29 05:00:21;;;;;;;25.43;13.07;;;;;;;;;;4448763;32;20221;-55
2022/01/29 05:02:52;;;;;;;33.53;16.20;;;;;;;;;;4445549;32;20283;-56
2022/01/29 05:05:18;;;;;;;29.63;16.37;;;;;;;;;;4416866;32;20339;-58
2022/01/29 05:07:43;;;;;;;29.87;15.53;;;;;;;;;;4418176;32;20327;-55
2022/01/29 05:10:10;;;;;;;45.43;18.67;;;;;;;;;;4418121;32;20627;-56
2022/01/29 05:15:38;;;;;;;36.93;18.37;;;;;;;;;;4418149;32;20205;-55
2022/01/29 05:28:52;;;;;;;42.73;22.53;;;;;;;;;;4417868;32;20680;-55
2022/01/29 05:31:17;;;;;;;51.63;24.30;;;;;;;;;;4403770;32;20276;-54
2022/01/29 05:33:42;;;;;;;42.53;24.20;;;;;;;;;;4417845;32;20272;-55
2022/01/29 05:36:08;;;;;;;43.90;26.40;;;;;;;;;;4416373;32;20237;-54
2022/01/29 05:38:34;;;;;;;58.03;32.40;;;;;;;;;;4430872;32;20373;-56
2022/01/29 05:41:01;;;;;;;71.97;36.37;;;;;;;;;;4432868;32;20282;-55
2022/01/29 05:43:26;;;;;;;63.70;36.37;;;;;;;;;;4432550;32;20218;-55
2022/01/29 05:45:52;;;;;;;66.57;33.80;;;;;;;;;;4443851;32;20264;-55
2022/01/29 05:48:17;;;;;;;70.97;33.27;;;;;;;;;;4448431;32;20313;-54
2022/01/29 05:50:43;;;;;;;53.43;30.00;;;;;;;;;;4410590;32;20332;-55
2022/01/29 05:53:08;;;;;;;68.30;31.83;;;;;;;;;;4417186;32;20318;-56
2022/01/29 05:55:33;;;;;;;62.23;30.97;;;;;;;;;;4417142;32;20268;-55
2022/01/29 05:57:59;;;;;;;63.03;32.23;;;;;;;;;;4417341;32;20626;-54
2022/01/29 06:00:25;;;;;;;72.93;36.53;;;;;;;;;;4417105;32;20267;-54
2022/01/29 06:03:01;;;;;;;77.23;35.37;;;;;;;;;;4417541;32;20344;-55
2022/01/29 06:05:27;;;;;;;70.40;35.20;;;;;;;;;;4417086;32;20803;-55
2022/01/29 06:07:52;;;;;;;59.33;35.70;;;;;;;;;;4417011;32;20272;-55
2022/01/29 06:10:18;;;;;;;93.13;41.20;;;;;;;;;;4403257;32;20279;-54
2022/01/29 06:12:43;;;;;;;114.37;49.40;;;;;;;;;;4417443;32;20314;-55
2022/01/29 06:15:11;;;;;;;94.27;45.37;;;;;;;;;;4417047;32;20256;-54
2022/01/29 06:17:36;;;;;;;85.03;43.77;;;;;;;;;;4402992;32;20570;-54
2022/01/29 06:20:02;;;;;;;84.03;46.47;;;;;;;;;;4416710;32;20291;-54
2022/01/29 06:22:27;;;;;;;129.43;61.17;;;;;;;;;;4416957;32;20448;-56
2022/01/29 06:24:53;;;;;;;145.33;73.13;;;;;;;;;;4416754;32;20823;-54
2022/01/29 06:27:18;;;;;;;144.90;71.27;;;;;;;;;;4416244;32;20606;-54
2022/01/29 06:29:44;;;;;;;166.50;86.43;;;;;;;;;;4416922;32;20685;-55
2022/01/29 06:32:09;;;;;;;165.70;81.87;;;;;;;;;;4403187;32;20485;-53
2022/01/29 06:34:35;;;;;;;131.07;70.20;;;;;;;;;;4417182;32;20273;-55
2022/01/29 06:37:00;;;;;;;109.90;53.50;;;;;;;;;;4415989;32;20230;-54
2022/01/29 06:39:26;;;;;;;73.17;35.27;;;;;;;;;;4417811;32;20315;-55
2022/01/29 06:41:52;;;;;;;57.50;30.13;;;;;;;;;;4431997;32;20312;-54
2022/01/29 06:44:17;;;;;;;72.40;32.27;;;;;;;;;;4433417;32;20329;-54
2022/01/29 06:46:43;;;;;;;84.63;44.27;;;;;;;;;;4447540;32;20303;-53
2022/01/29 06:49:08;;;;;;;100.40;49.43;;;;;;;;;;4447352;32;20271;-54
2022/01/29 06:51:33;;;;;;;101.83;53.57;;;;;;;;;;4447163;32;20307;-54
2022/01/29 06:53:59;;;;;;;96.67;49.07;;;;;;;;;;4447708;32;20358;-54
2022/01/29 06:56:24;;;;;;;105.40;51.77;;;;;;;;;;4447273;32;20343;-55
2022/01/29 06:58:50;;;;;;;132.63;63.17;;;;;;;;;;4437350;32;20624;-53
2022/01/29 07:01:15;;;;;;;133.30;65.87;;;;;;;;;;4417851;32;20224;-55
2022/01/29 07:03:41;;;;;;;117.93;63.20;;;;;;;;;;4424273;32;20279;-54
2022/01/29 07:06:06;;;;;;;153.30;87.17;;;;;;;;;;4428131;32;20369;-54
2022/01/29 07:08:37;;;;;;;201.53;98.67;;;;;;;;;;4431721;32;20335;-55
2022/01/29 07:11:02;;;;;;;195.80;93.33;;;;;;;;;;4430602;32;20239;-54
2022/01/29 07:13:27;;;;;;;176.67;84.53;;;;;;;;;;4431849;32;20205;-53
2022/01/29 07:15:53;;;;;;;181.27;91.50;;;;;;;;;;4431886;32;20323;-55
2022/01/29 07:18:18;;;;;;;182.67;90.90;;;;;;;;;;4431569;32;20296;-56
2022/01/29 07:20:46;;;;;;;184.40;94.57;;;;;;;;;;4431775;32;20315;-54
2022/01/29 07:23:12;;;;;;;179.33;93.53;;;;;;;;;;4431783;32;20649;-55
2022/01/29 07:25:37;;;;;;;178.53;92.43;;;;;;;;;;4431690;32;20224;-54
2022/01/29 07:28:03;;;;;;;191.67;99.90;;;;;;;;;;4432204;32;20734;-53
2022/01/29 07:30:28;;;;;;;266.50;132.03;;;;;;;;;;4434854;32;20216;-55
2022/01/29 07:32:54;;;;;;;257.70;123.30;;;;;;;;;;4434998;32;20357;-54
2022/01/29 07:35:19;;;;;;;155.00;81.57;;;;;;;;;;4433538;32;20794;-54
2022/01/29 07:37:45;;;;;;;137.30;70.20;;;;;;;;;;4430754;32;20306;-54
2022/01/29 07:40:10;;;;;;;128.40;66.10;;;;;;;;;;4434485;32;20355;-54
2022/01/29 07:42:37;;;;;;;144.97;73.90;;;;;;;;;;4434970;32;20280;-55
2022/01/29 07:45:03;;;;;;;128.67;66.17;;;;;;;;;;4426553;32;20224;-55
2022/01/29 07:47:29;;;;;;;84.30;47.67;;;;;;;;;;4435733;32;20303;-55
2022/01/29 07:49:54;;;;;;;95.13;50.33;;;;;;;;;;4449968;32;20317;-55
2022/01/29 07:52:20;;;;;;;116.67;59.73;;;;;;;;;;4449630;32;20579;-55
2022/01/29 07:54:45;;;;;;;113.10;63.37;;;;;;;;;;4434282;32;20287;-54
2022/01/29 07:57:10;;;;;;;124.63;65.73;;;;;;;;;;4419256;32;20249;-55
2022/01/29 07:59:36;;;;;;;127.07;69.73;;;;;;;;;;4419105;32;20659;-53
2022/01/29 08:02:01;;;;;;;127.17;66.20;;;;;;;;;;4419474;32;20217;-53
2022/01/29 08:04:27;;;;;;;128.73;70.07;;;;;;;;;;4418856;32;20366;-54
2022/01/29 08:06:52;;;;;;;148.60;85.40;;;;;;;;;;4418739;32;20255;-53
2022/01/29 08:09:18;;;;;;;139.53;74.07;;;;;;;;;;4419326;32;20779;-55
2022/01/29 08:11:44;;;;;;;132.33;68.13;;;;;;;;;;4405193;32;20324;-54
2022/01/29 08:14:09;;;;;;;128.30;65.13;;;;;;;;;;4418907;32;20341;-54
2022/01/29 08:16:35;;;;;;;98.77;62.13;;;;;;;;;;4418865;32;20221;-54
2022/01/29 08:19:00;;;;;;;98.40;54.30;;;;;;;;;;4418755;32;20502;-54
2022/01/29 08:21:26;;;;;;;82.60;46.63;;;;;;;;;;4418946;32;20728;-53
2022/01/29 08:23:51;;;;;;;114.37;56.27;;;;;;;;;;4418928;32;20692;-56
2022/01/29 08:26:17;;;;;;;114.07;61.23;;;;;;;;;;4417264;32;20366;-55
2022/01/29 08:28:42;;;;;;;127.27;63.27;;;;;;;;;;4419761;32;20391;-54
2022/01/29 08:31:08;;;;;;;129.77;65.93;;;;;;;;;;4434023;32;20264;-54
2022/01/29 08:33:34;;;;;;;133.23;66.47;;;;;;;;;;4434078;32;20756;-55
2022/01/29 08:35:59;;;;;;;64.23;30.53;;;;;;;;;;4434085;32;20220;-53
2022/01/29 08:38:26;;;;;;;95.43;47.63;;;;;;;;;;4433723;32;20381;-54
2022/01/29 08:40:53;;;;;;;133.33;55.17;;;;;;;;;;4433574;32;20382;-54
2022/01/29 08:43:19;;;;;;;109.37;53.70;;;;;;;;;;4433581;32;20204;-54
2022/01/29 08:45:44;;;;;;;61.80;32.40;;;;;;;;;;4444218;32;20295;-54
2022/01/29 08:48:10;;;;;;;64.40;31.17;;;;;;;;;;4449036;32;20271;-53
2022/01/29 08:50:35;;;;;;;23.20;10.83;;;;;;;;;;4438191;32;20241;-54
2022/01/29 08:53:01;;;;;;;11.17;6.03;;;;;;;;;;4418308;32;20285;-55
2022/01/29 08:55:26;;;;;;;8.27;5.03;;;;;;;;;;4417860;32;20327;-55
2022/01/29 08:57:52;;;;;;;7.87;5.47;;;;;;;;;;4421893;32;20313;-54
2022/01/29 09:00:18;;;;;;;10.97;5.00;;;;;;;;;;4419413;32;20334;-55
2022/01/29 09:02:43;;;;;;;9.93;6.30;;;;;;;;;;4432402;32;20304;-55
2022/01/29 09:05:11;;;;;;;7.33;4.93;;;;;;;;;;4417484;32;20306;-54
2022/01/29 09:07:37;;;;;;;8.73;6.17;;;;;;;;;;4417633;32;20545;-54
2022/01/29 09:10:02;;;;;;;19.23;7.47;;;;;;;;;;4413479;32;20315;-55
2022/01/29 09:12:29;;;;;;;15.87;8.67;;;;;;;;;;4415079;32;20387;-55
2022/01/29 09:14:55;;;;;;;12.20;6.93;;;;;;;;;;4415955;32;20402;-56
2022/01/29 09:17:20;;;;;;;17.33;6.20;;;;;;;;;;4415403;32;20518;-55
2022/01/29 09:19:46;;;;;;;26.17;12.13;;;;;;;;;;4416316;32;20338;-57
2022/01/29 09:22:12;;;;;;;26.90;11.90;;;;;;;;;;4417516;32;20316;-55
2022/01/29 09:24:37;;;;;;;13.10;6.53;;;;;;;;;;4418021;32;20699;-56
2022/01/29 09:27:03;;;;;;;23.77;13.27;;;;;;;;;;4418294;32;20687;-56
2022/01/29 09:29:28;;;;;;;21.53;12.30;;;;;;;;;;4418157;32;20360;-63
2022/01/29 09:31:54;;;;;;;32.87;18.53;;;;;;;;;;4417942;32;20438;-56
2022/01/29 09:34:19;;;;;;;24.50;13.77;;;;;;;;;;4416679;32;20391;-56
2022/01/29 09:36:45;;;;;;;18.53;12.07;;;;;;;;;;4416755;32;20652;-56
2022/01/29 09:39:10;;;;;;;14.43;9.17;;;;;;;;;;4416535;32;20726;-56
2022/01/29 09:41:42;;;;;;;7.07;5.10;;;;;;;;;;4417884;32;20726;-56
2022/01/29 09:44:07;;;;;;;4.03;3.37;;;;;;;;;;4418349;32;20190;-55
2022/01/29 09:46:34;;;;;;;5.77;4.73;;;;;;;;;;4441385;32;20240;-56
2022/01/29 09:49:00;;;;;;;6.53;4.23;;;;;;;;;;4417566;32;20367;-56
2022/01/29 09:51:27;;;;;;;5.53;3.70;;;;;;;;;;4403321;32;20260;-56
2022/01/29 09:53:52;;;;;;;4.30;3.33;;;;;;;;;;4403801;32;20225;-56
2022/01/29 09:56:18;;;;;;;4.47;3.30;;;;;;;;;;4403939;32;20287;-57
2022/01/29 09:58:44;;;;;;;2.67;2.47;;;;;;;;;;4404087;32;20280;-56
2022/01/29 10:01:10;;;;;;;5.67;3.20;;;;;;;;;;4417661;32;20589;-57
2022/01/29 10:03:36;;;;;;;5.33;4.80;;;;;;;;;;4417406;32;20301;-56
2022/01/29 10:06:03;;;;;;;7.57;5.07;;;;;;;;;;4417699;32;20300;-56
2022/01/29 10:08:30;;;;;;;10.60;6.13;;;;;;;;;;4416295;32;20228;-57
2022/01/29 10:10:58;;;;;;;13.43;9.27;;;;;;;;;;4417016;32;20234;-56
2022/01/29 10:13:34;;;;;;;23.80;14.93;;;;;;;;;;4416767;32;20779;-56
2022/01/29 10:16:19;;;;;;;11.03;6.87;;;;;;;;;;4416048;32;20263;-56
2022/01/29 10:18:57;;;;;;;21.80;9.40;;;;;;;;;;4415184;32;20439;-57
2022/01/29 10:21:25;;;;;;;18.70;8.97;;;;;;;;;;4415417;32;20241;-56
2022/01/29 10:24:02;;;;;;;23.97;12.07;;;;;;;;;;4415290;32;20271;-56
2022/01/29 10:26:30;;;;;;;19.93;9.17;;;;;;;;;;4415233;32;20331;-57
2022/01/29 10:28:56;;;;;;;29.27;14.30;;;;;;;;;;4416945;32;20255;-57
2022/01/29 10:31:22;;;;;;;31.87;12.90;;;;;;;;;;4416547;32;20283;-57
2022/01/29 10:33:48;;;;;;;29.23;11.60;;;;;;;;;;4417884;32;20750;-57
2022/01/29 10:36:15;;;;;;;19.57;10.07;;;;;;;;;;4431720;32;20664;-56
2022/01/29 10:38:41;;;;;;;15.63;8.50;;;;;;;;;;4417894;32;20264;-56
2022/01/29 10:41:23;;;;;;;7.13;5.27;;;;;;;;;;4431966;32;20640;-56
2022/01/29 10:43:58;;;;;;;10.73;5.77;;;;;;;;;;4426261;32;20266;-55
2022/01/29 10:46:30;;;;;;;7.33;4.60;;;;;;;;;;4417714;32;20525;-56
2022/01/29 10:48:57;;;;;;;6.50;4.90;;;;;;;;;;4431954;32;20289;-56
2022/01/29 10:51:23;;;;;;;9.83;6.43;;;;;;;;;;4431775;32;20599;-56
2022/01/29 10:53:49;;;;;;;10.93;6.40;;;;;;;;;;4431787;32;20295;-56
2022/01/29 10:56:14;;;;;;;13.17;7.73;;;;;;;;;;4431802;32;20315;-56
2022/01/29 10:58:41;;;;;;;15.27;8.20;;;;;;;;;;4423147;32;20349;-58
2022/01/29 11:01:13;;;;;;;8.00;4.40;;;;;;;;;;4416633;32;20319;-56
2022/01/29 11:03:38;;;;;;;10.33;5.43;;;;;;;;;;4416515;32;20628;-56
2022/01/29 11:06:07;;;;;;;12.80;5.60;;;;;;;;;;4416401;32;20319;-55
2022/01/29 11:08:33;;;;;;;9.20;5.43;;;;;;;;;;4416636;32;20222;-56
2022/01/29 11:10:58;;;;;;;8.90;5.83;;;;;;;;;;4416640;32;20685;-56
2022/01/29 11:13:25;;;;;;;8.67;5.33;;;;;;;;;;4416643;32;20822;-56
2022/01/29 11:15:52;;;;;;;23.73;10.00;;;;;;;;;;4416717;32;20398;-56
2022/01/29 11:18:18;;;;;;;49.13;24.13;;;;;;;;;;4416259;32;20212;-56
2022/01/29 11:20:44;;;;;;;23.03;11.20;;;;;;;;;;4415756;32;20316;-57
2022/01/29 11:23:10;;;;;;;18.77;11.00;;;;;;;;;;4415457;32;20563;-56
2022/01/29 11:25:36;;;;;;;13.27;7.73;;;;;;;;;;4414514;32;20323;-54
2022/01/29 11:28:16;;;;;;;15.20;9.00;;;;;;;;;;4414405;32;20355;-54
2022/01/29 11:30:44;;;;;;;13.87;8.13;;;;;;;;;;4414437;32;20738;-55
2022/01/29 11:33:10;;;;;;;19.87;10.30;;;;;;;;;;4414493;32;20213;-55
2022/01/29 11:35:53;;;;;;;17.77;8.60;;;;;;;;;;4415603;32;20316;-56
2022/01/29 11:38:33;;;;;;;27.90;9.80;;;;;;;;;;4415889;32;20320;-55
2022/01/29 11:41:03;;;;;;;16.00;10.63;;;;;;;;;;4415816;32;20405;-56
2022/01/29 11:43:30;;;;;;;15.17;8.97;;;;;;;;;;4402246;32;20243;-55
2022/01/29 11:46:16;;;;;;;18.07;10.50;;;;;;;;;;4439392;32;20263;-55
2022/01/29 11:48:53;;;;;;;16.67;11.03;;;;;;;;;;4436157;32;20292;-55
2022/01/29 11:51:38;;;;;;;30.57;14.67;;;;;;;;;;4447002;32;20240;-57
2022/01/29 11:54:03;;;;;;;16.27;10.23;;;;;;;;;;4446731;32;20766;-58
2022/01/29 11:56:37;;;;;;;30.97;13.63;;;;;;;;;;4446974;32;20208;-55
2022/01/29 11:59:17;;;;;;;30.73;15.50;;;;;;;;;;4435714;32;20205;-55
2022/01/29 12:01:44;;;;;;;17.90;10.17;;;;;;;;;;4431033;32;20243;-54
2022/01/29 12:04:10;;;;;;;18.33;11.03;;;;;;;;;;4406625;32;20414;-55
2022/01/29 12:06:41;;;;;;;18.83;11.07;;;;;;;;;;4415609;32;20278;-54
2022/01/29 12:09:19;;;;;;;12.93;8.57;;;;;;;;;;4415476;32;20261;-55
2022/01/29 12:12:13;;;;;;;18.30;8.57;;;;;;;;;;4414897;32;20440;-54
2022/01/29 12:14:38;;;;;;;16.20;8.63;;;;;;;;;;4414609;32;20585;-54
2022/01/29 12:17:05;;;;;;;17.33;10.50;;;;;;;;;;4417877;32;20300;-55
2022/01/29 12:19:34;;;;;;;26.50;13.47;;;;;;;;;;4418729;32;20217;-54
2022/01/29 12:22:01;;;;;;;25.87;13.87;;;;;;;;;;4418679;32;20261;-54
2022/01/29 12:24:26;;;;;;;28.00;15.27;;;;;;;;;;4418903;32;20633;-56
2022/01/29 12:26:56;;;;;;;21.17;10.40;;;;;;;;;;4419059;32;20381;-56
2022/01/29 12:29:22;;;;;;;25.07;12.63;;;;;;;;;;4405239;32;20317;-55
2022/01/29 12:31:52;;;;;;;14.87;9.33;;;;;;;;;;4418613;32;20229;-54
2022/01/29 12:34:20;;;;;;;17.03;10.57;;;;;;;;;;4405154;32;20229;-54
2022/01/29 12:36:47;;;;;;;16.57;8.50;;;;;;;;;;4431300;32;20259;-55
2022/01/29 12:39:21;;;;;;;23.27;12.23;;;;;;;;;;4419804;32;20656;-57
2022/01/29 12:42:12;;;;;;;27.07;13.20;;;;;;;;;;4434181;32;20252;-56
2022/01/29 12:44:43;;;;;;;13.80;7.20;;;;;;;;;;4437364;32;20220;-55
2022/01/29 12:47:23;;;;;;;26.17;9.93;;;;;;;;;;4449298;32;20232;-55
2022/01/29 12:49:48;;;;;;;20.07;10.47;;;;;;;;;;4449612;32;20200;-56
2022/01/29 12:52:16;;;;;;;19.17;10.13;;;;;;;;;;4449343;32;20673;-55
2022/01/29 12:54:57;;;;;;;17.10;9.03;;;;;;;;;;4449437;32;20213;-55
2022/01/29 12:57:24;;;;;;;35.67;13.23;;;;;;;;;;4447570;32;20216;-56
2022/01/29 12:59:50;;;;;;;24.30;13.23;;;;;;;;;;4418484;32;20565;-55
2022/01/29 13:02:15;;;;;;;23.30;12.13;;;;;;;;;;4418256;32;20265;-56
2022/01/29 13:04:46;;;;;;;15.67;8.37;;;;;;;;;;4418312;32;20284;-55
2022/01/29 13:07:13;;;;;;;16.03;10.50;;;;;;;;;;4417897;32;20229;-55
2022/01/29 13:09:39;;;;;;;19.83;11.33;;;;;;;;;;4416910;32;20562;-55
2022/01/29 13:12:07;;;;;;;18.27;7.73;;;;;;;;;;4418330;32;20752;-55
2022/01/29 13:14:33;;;;;;;18.47;10.37;;;;;;;;;;4418106;32;20229;-55
2022/01/29 13:17:07;;;;;;;11.53;7.77;;;;;;;;;;4417811;32;20232;-55
2022/01/29 13:19:34;;;;;;;20.13;7.93;;;;;;;;;;4417953;32;20276;-56
2022/01/29 13:22:10;;;;;;;14.87;8.00;;;;;;;;;;4417440;32;20233;-56
2022/01/29 13:24:41;;;;;;;11.77;6.77;;;;;;;;;;4418266;32;20693;-56
2022/01/29 13:27:18;;;;;;;20.33;11.40;;;;;;;;;;4416867;32;20339;-55
2022/01/29 13:29:53;;;;;;;14.60;8.33;;;;;;;;;;4417988;32;20596;-55
2022/01/29 13:32:28;;;;;;;15.90;9.47;;;;;;;;;;4418628;32;20313;-55
2022/01/29 13:34:54;;;;;;;17.63;10.17;;;;;;;;;;4419119;32;20256;-55
2022/01/29 13:37:30;;;;;;;13.33;8.27;;;;;;;;;;4432657;32;20268;-56
2022/01/29 13:39:55;;;;;;;11.30;7.97;;;;;;;;;;4419095;32;20212;-56
2022/01/29 13:42:23;;;;;;;14.13;8.97;;;;;;;;;;4432598;32;20237;-56
2022/01/29 13:45:24;;;;;;;15.10;9.17;;;;;;;;;;4437325;32;20244;-55
2022/01/29 13:48:13;;;;;;;15.53;7.00;;;;;;;;;;4370202;32;20245;-57
2022/01/29 13:50:52;;;;;;;13.37;8.67;;;;;;;;;;4444444;32;20759;-55
2022/01/29 13:53:20;;;;;;;10.10;6.73;;;;;;;;;;4448496;32;20233;-56
2022/01/29 13:55:55;;;;;;;8.87;6.00;;;;;;;;;;4448376;32;20292;-56
2022/01/29 13:58:22;;;;;;;7.20;6.10;;;;;;;;;;4441541;32;20822;-55
2022/01/29 14:01:00;;;;;;;31.23;11.87;;;;;;;;;;4432526;32;20713;-55
2022/01/29 14:03:47;;;;;;;16.70;8.77;;;;;;;;;;4412870;32;20884;-55
2022/01/29 14:06:20;;;;;;;14.50;9.33;;;;;;;;;;4416926;32;20261;-55
2022/01/29 14:08:47;;;;;;;17.90;11.43;;;;;;;;;;4417435;32;20560;-57
2022/01/29 14:11:15;;;;;;;23.73;9.47;;;;;;;;;;4417355;32;20261;-56
2022/01/29 14:13:41;;;;;;;14.30;9.07;;;;;;;;;;4417092;32;20321;-57
2022/01/29 14:16:07;;;;;;;19.23;11.43;;;;;;;;;;4403003;32;20304;-55
2022/01/29 14:18:34;;;;;;;18.37;9.20;;;;;;;;;;4403429;32;20647;-55
2022/01/29 14:20:59;;;;;;;18.50;10.00;;;;;;;;;;4417020;32;20643;-55
2022/01/29 14:23:25;;;;;;;22.97;12.57;;;;;;;;;;4417229;32;20323;-57
2022/01/29 14:25:50;;;;;;;19.93;10.77;;;;;;;;;;4416749;32;20255;-56
2022/01/29 14:28:16;;;;;;;21.77;11.73;;;;;;;;;;4416460;32;20400;-55
2022/01/29 14:30:41;;;;;;;22.33;13.03;;;;;;;;;;4416831;32;20225;-57
2022/01/29 14:33:07;;;;;;;24.77;11.10;;;;;;;;;;4416665;32;20306;-55
2022/01/29 14:35:33;;;;;;;23.17;12.23;;;;;;;;;;4416704;32;20228;-55
2022/01/29 14:37:58;;;;;;;22.93;13.50;;;;;;;;;;4423264;32;20329;-56
2022/01/29 14:40:24;;;;;;;13.63;9.57;;;;;;;;;;4432126;32;20605;-56